DAL329 KMSN-KICT
Flight info
| Callsign | DAL329 |
|---|---|
| Flight time | 1h 26m |
| Altitude | 38000 |
| Route | KMSN/36 N0450F380 DCT DBQ DCT LMN DCT STJ DCT ICT DCT KICT/19R |
| Aircraft | A20N/M-V/N |
Departure
| Time | 2026-04-19 21:22 |
|---|---|
| Airport | Dane County Regional Truax Field (KMSN) |
Arrival
| Time | 2026-04-19 22:49 |
|---|---|
| Airport | Wichita Dwight D. Eisenhower National Airport (KICT) |
| Time | Latitude | Longitude | Altitude | Speed | Heading |
|---|---|---|---|---|---|
| 2026-04-19 21:06 | 43.13427 | -89.34468 | 864 ft | 0 kts | 315° |
| 2026-04-19 21:15 | 43.13415 | -89.34449 | 850 ft | 4 kts | 278° |
| 2026-04-19 21:15 | 43.13421 | -89.34420 | 854 ft | 4 kts | 223° |
| 2026-04-19 21:15 | 43.13430 | -89.34410 | 847 ft | 1 kts | 218° |
| 2026-04-19 21:18 | 43.13429 | -89.34411 | 847 ft | 1 kts | 217° |
| 2026-04-19 21:18 | 43.13380 | -89.34396 | 853 ft | 10 kts | 164° |
| 2026-04-19 21:18 | 43.13316 | -89.34397 | 857 ft | 8 kts | 187° |
| 2026-04-19 21:19 | 43.13272 | -89.34405 | 868 ft | 5 kts | 187° |
| 2026-04-19 21:19 | 43.13145 | -89.34429 | 870 ft | 36 kts | 187° |
| 2026-04-19 21:19 | 43.12887 | -89.34454 | 871 ft | 38 kts | 180° |
| 2026-04-19 21:19 | 43.12621 | -89.34463 | 857 ft | 40 kts | 182° |
| 2026-04-19 21:20 | 43.12482 | -89.34466 | 860 ft | 0 kts | 155° |
| 2026-04-19 21:20 | 43.12481 | -89.34464 | 860 ft | 1 kts | 152° |
| 2026-04-19 21:20 | 43.12459 | -89.34413 | 860 ft | 24 kts | 104° |
| 2026-04-19 21:21 | 43.12456 | -89.34283 | 859 ft | 12 kts | 90° |
| 2026-04-19 21:21 | 43.12498 | -89.34216 | 855 ft | 8 kts | 7° |
| 2026-04-19 21:21 | 43.12499 | -89.34216 | 857 ft | 0 kts | 7° |
| 2026-04-19 21:22 | 43.12504 | -89.34215 | 857 ft | 5 kts | 6° |
| 2026-04-19 21:22 | 43.12831 | -89.34207 | 868 ft | 93 kts | 1° |
| 2026-04-19 21:22 | 43.13750 | -89.34168 | 951 ft | 158 kts | 0° |
| 2026-04-19 21:22 | 43.14839 | -89.34058 | 1930 ft | 156 kts | 358° |
| 2026-04-19 21:23 | 43.15944 | -89.34059 | 2936 ft | 165 kts | 346° |
| 2026-04-19 21:23 | 43.16911 | -89.35007 | 3651 ft | 190 kts | 301° |
| 2026-04-19 21:23 | 43.17122 | -89.36901 | 4374 ft | 224 kts | 260° |
| 2026-04-19 21:23 | 43.16414 | -89.38880 | 5501 ft | 239 kts | 241° |
| 2026-04-19 21:24 | 43.15381 | -89.40800 | 6563 ft | 258 kts | 236° |
| 2026-04-19 21:24 | 43.14219 | -89.42739 | 7421 ft | 267 kts | 234° |
| 2026-04-19 21:24 | 43.13017 | -89.44700 | 8356 ft | 271 kts | 234° |
| 2026-04-19 21:24 | 43.11810 | -89.46692 | 9306 ft | 274 kts | 235° |
| 2026-04-19 21:25 | 43.10602 | -89.48731 | 10227 ft | 278 kts | 236° |
| 2026-04-19 21:25 | 43.09353 | -89.50889 | 10612 ft | 301 kts | 237° |
| 2026-04-19 21:25 | 43.08032 | -89.53215 | 11113 ft | 315 kts | 237° |
| 2026-04-19 21:25 | 43.06698 | -89.55569 | 11917 ft | 320 kts | 238° |
| 2026-04-19 21:26 | 43.05328 | -89.57986 | 12790 ft | 323 kts | 238° |
| 2026-04-19 21:26 | 43.03948 | -89.60418 | 13651 ft | 325 kts | 239° |
| 2026-04-19 21:26 | 43.02553 | -89.62876 | 14443 ft | 328 kts | 240° |
| 2026-04-19 21:26 | 43.01148 | -89.65353 | 15180 ft | 331 kts | 241° |
| 2026-04-19 21:27 | 42.99736 | -89.67843 | 15951 ft | 333 kts | 242° |
| 2026-04-19 21:27 | 42.98312 | -89.70348 | 16691 ft | 335 kts | 242° |
| 2026-04-19 21:27 | 42.96876 | -89.72876 | 17425 ft | 338 kts | 243° |
| 2026-04-19 21:27 | 42.95426 | -89.75424 | 18155 ft | 341 kts | 243° |
| 2026-04-19 21:28 | 42.93964 | -89.77989 | 18821 ft | 344 kts | 244° |
| 2026-04-19 21:28 | 42.92491 | -89.80570 | 19461 ft | 346 kts | 244° |
| 2026-04-19 21:28 | 42.91011 | -89.83160 | 20129 ft | 347 kts | 244° |
| 2026-04-19 21:28 | 42.89524 | -89.85760 | 20806 ft | 348 kts | 245° |
| 2026-04-19 21:29 | 42.88029 | -89.88371 | 21455 ft | 350 kts | 245° |
| 2026-04-19 21:29 | 42.86530 | -89.90990 | 22113 ft | 351 kts | 245° |
| 2026-04-19 21:29 | 42.85024 | -89.93622 | 22785 ft | 353 kts | 245° |
| 2026-04-19 21:29 | 42.83509 | -89.96265 | 23428 ft | 354 kts | 246° |
| 2026-04-19 21:30 | 42.81988 | -89.98918 | 24021 ft | 356 kts | 246° |
| 2026-04-19 21:30 | 42.80456 | -90.01588 | 24469 ft | 359 kts | 245° |
| 2026-04-19 21:30 | 42.78912 | -90.04276 | 24929 ft | 362 kts | 245° |
| 2026-04-19 21:30 | 42.77355 | -90.06982 | 25381 ft | 364 kts | 245° |
| 2026-04-19 21:31 | 42.75785 | -90.09704 | 25830 ft | 367 kts | 245° |
| 2026-04-19 21:31 | 42.74203 | -90.12445 | 26269 ft | 370 kts | 245° |
| 2026-04-19 21:31 | 42.72612 | -90.15204 | 26708 ft | 372 kts | 245° |
| 2026-04-19 21:31 | 42.71012 | -90.17979 | 27139 ft | 374 kts | 245° |
| 2026-04-19 21:32 | 42.69400 | -90.20772 | 27559 ft | 376 kts | 244° |
| 2026-04-19 21:32 | 42.67779 | -90.23576 | 27978 ft | 379 kts | 244° |
| 2026-04-19 21:32 | 42.66165 | -90.26363 | 28378 ft | 381 kts | 244° |
| 2026-04-19 21:32 | 42.64520 | -90.29198 | 28771 ft | 384 kts | 244° |
| 2026-04-19 21:33 | 42.62860 | -90.32054 | 29158 ft | 386 kts | 244° |
| 2026-04-19 21:33 | 42.61191 | -90.34923 | 29466 ft | 388 kts | 244° |
| 2026-04-19 21:33 | 42.59515 | -90.37803 | 29890 ft | 389 kts | 244° |
| 2026-04-19 21:33 | 42.57835 | -90.40688 | 30225 ft | 391 kts | 244° |
| 2026-04-19 21:34 | 42.56143 | -90.43594 | 30526 ft | 393 kts | 244° |
| 2026-04-19 21:34 | 42.54443 | -90.46517 | 30790 ft | 396 kts | 244° |
| 2026-04-19 21:34 | 42.52727 | -90.49463 | 31027 ft | 399 kts | 243° |
| 2026-04-19 21:34 | 42.50998 | -90.52430 | 31267 ft | 403 kts | 243° |
| 2026-04-19 21:35 | 42.49254 | -90.55414 | 31502 ft | 405 kts | 243° |
| 2026-04-19 21:35 | 42.47494 | -90.58418 | 31726 ft | 408 kts | 243° |
| 2026-04-19 21:35 | 42.45723 | -90.61437 | 31952 ft | 411 kts | 243° |
| 2026-04-19 21:35 | 42.43941 | -90.64468 | 32268 ft | 411 kts | 242° |
| 2026-04-19 21:36 | 42.42154 | -90.67496 | 32583 ft | 412 kts | 242° |
| 2026-04-19 21:36 | 42.40363 | -90.70530 | 32841 ft | 413 kts | 242° |
| 2026-04-19 21:36 | 42.38609 | -90.73594 | 33172 ft | 410 kts | 244° |
| 2026-04-19 21:36 | 42.36935 | -90.76709 | 33467 ft | 408 kts | 245° |
| 2026-04-19 21:37 | 42.35312 | -90.79854 | 33806 ft | 407 kts | 246° |
| 2026-04-19 21:37 | 42.33709 | -90.83005 | 34136 ft | 407 kts | 246° |
| 2026-04-19 21:37 | 42.32097 | -90.86161 | 34423 ft | 408 kts | 245° |
| 2026-04-19 21:37 | 42.30468 | -90.89311 | 34682 ft | 410 kts | 245° |
| 2026-04-19 21:38 | 42.28818 | -90.92460 | 34937 ft | 410 kts | 244° |
| 2026-04-19 21:38 | 42.27160 | -90.95600 | 35177 ft | 411 kts | 244° |
| 2026-04-19 21:38 | 42.25515 | -90.98702 | 35406 ft | 412 kts | 244° |
| 2026-04-19 21:38 | 42.23842 | -91.01850 | 35636 ft | 413 kts | 244° |
| 2026-04-19 21:39 | 42.22166 | -91.05001 | 35854 ft | 414 kts | 244° |
| 2026-04-19 21:39 | 42.20487 | -91.08155 | 36073 ft | 414 kts | 243° |
| 2026-04-19 21:39 | 42.18804 | -91.11314 | 36265 ft | 415 kts | 243° |
| 2026-04-19 21:39 | 42.17122 | -91.14472 | 36551 ft | 414 kts | 243° |
| 2026-04-19 21:40 | 42.13764 | -91.20780 | 36987 ft | 414 kts | 243° |
| 2026-04-19 21:40 | 42.12083 | -91.23935 | 37197 ft | 415 kts | 243° |
| 2026-04-19 21:40 | 42.10399 | -91.27087 | 37402 ft | 415 kts | 243° |
| 2026-04-19 21:41 | 42.08709 | -91.30243 | 37601 ft | 416 kts | 243° |
| 2026-04-19 21:41 | 42.07590 | -91.32333 | 37729 ft | 416 kts | 243° |
| 2026-04-19 21:41 | 42.05897 | -91.35497 | 37904 ft | 417 kts | 242° |
| 2026-04-19 21:41 | 42.04199 | -91.38662 | 38090 ft | 417 kts | 242° |
| 2026-04-19 21:42 | 42.02496 | -91.41826 | 38248 ft | 418 kts | 242° |
| 2026-04-19 21:42 | 41.99084 | -91.48157 | 38274 ft | 418 kts | 242° |
| 2026-04-19 21:43 | 41.95675 | -91.54480 | 38247 ft | 417 kts | 242° |
| 2026-04-19 21:43 | 41.92274 | -91.60771 | 38272 ft | 416 kts | 242° |
| 2026-04-19 21:44 | 41.88878 | -91.67052 | 38266 ft | 415 kts | 242° |
| 2026-04-19 21:44 | 41.85503 | -91.73288 | 38274 ft | 416 kts | 242° |
| 2026-04-19 21:45 | 41.82097 | -91.79561 | 38275 ft | 416 kts | 242° |
| 2026-04-19 21:45 | 41.78682 | -91.85831 | 38282 ft | 416 kts | 242° |
| 2026-04-19 21:46 | 41.75263 | -91.92096 | 38247 ft | 416 kts | 242° |
| 2026-04-19 21:46 | 41.71846 | -91.98353 | 38281 ft | 416 kts | 242° |
| 2026-04-19 21:47 | 41.68429 | -92.04601 | 38288 ft | 416 kts | 242° |
| 2026-04-19 21:47 | 41.65005 | -92.10836 | 38294 ft | 416 kts | 242° |
| 2026-04-19 21:48 | 41.61579 | -92.17060 | 38297 ft | 416 kts | 242° |
| 2026-04-19 21:48 | 41.58150 | -92.23275 | 38298 ft | 415 kts | 242° |
| 2026-04-19 21:49 | 41.54719 | -92.29482 | 38267 ft | 415 kts | 242° |
| 2026-04-19 21:49 | 41.51313 | -92.35634 | 38260 ft | 414 kts | 242° |
| 2026-04-19 21:50 | 41.47889 | -92.41811 | 38277 ft | 414 kts | 242° |
| 2026-04-19 21:50 | 41.44468 | -92.47986 | 38283 ft | 414 kts | 242° |
| 2026-04-19 21:51 | 41.41033 | -92.54146 | 38290 ft | 414 kts | 242° |
| 2026-04-19 21:51 | 41.37598 | -92.60303 | 38293 ft | 414 kts | 242° |
| 2026-04-19 21:52 | 41.34161 | -92.66453 | 38292 ft | 414 kts | 242° |
| 2026-04-19 21:52 | 41.30723 | -92.72605 | 38241 ft | 414 kts | 242° |
| 2026-04-19 21:53 | 41.27269 | -92.78747 | 38275 ft | 415 kts | 242° |
| 2026-04-19 21:53 | 41.23805 | -92.84887 | 38286 ft | 415 kts | 242° |
| 2026-04-19 21:54 | 41.20350 | -92.91023 | 38284 ft | 415 kts | 242° |
| 2026-04-19 21:54 | 41.16891 | -92.97154 | 38290 ft | 415 kts | 242° |
| 2026-04-19 21:55 | 41.13428 | -93.03279 | 38293 ft | 415 kts | 242° |
| 2026-04-19 21:55 | 41.09961 | -93.09400 | 38268 ft | 415 kts | 242° |
| 2026-04-19 21:56 | 41.06481 | -93.15516 | 38250 ft | 415 kts | 242° |
| 2026-04-19 21:56 | 41.03010 | -93.21630 | 38255 ft | 415 kts | 242° |
| 2026-04-19 21:57 | 40.99525 | -93.27739 | 38268 ft | 416 kts | 242° |
| 2026-04-19 21:57 | 40.96031 | -93.33844 | 38269 ft | 416 kts | 242° |
| 2026-04-19 21:58 | 40.92536 | -93.39939 | 38272 ft | 416 kts | 242° |
| 2026-04-19 21:58 | 40.89039 | -93.46039 | 38283 ft | 416 kts | 242° |
| 2026-04-19 21:59 | 40.85541 | -93.52138 | 38261 ft | 416 kts | 242° |
| 2026-04-19 21:59 | 40.82033 | -93.58225 | 38275 ft | 416 kts | 241° |
| 2026-04-19 22:00 | 40.78548 | -93.64259 | 38287 ft | 416 kts | 242° |
| 2026-04-19 22:00 | 40.75035 | -93.70339 | 38297 ft | 416 kts | 242° |
| 2026-04-19 22:01 | 40.71523 | -93.76404 | 38274 ft | 416 kts | 241° |
| 2026-04-19 22:01 | 40.68001 | -93.82465 | 38247 ft | 416 kts | 241° |
| 2026-04-19 22:02 | 40.64477 | -93.88513 | 38256 ft | 416 kts | 241° |
| 2026-04-19 22:02 | 40.60946 | -93.94558 | 38261 ft | 416 kts | 241° |
| 2026-04-19 22:03 | 40.57329 | -94.00534 | 38264 ft | 419 kts | 239° |
| 2026-04-19 22:03 | 40.53502 | -94.06337 | 38268 ft | 421 kts | 238° |
| 2026-04-19 22:04 | 40.49628 | -94.12105 | 38270 ft | 421 kts | 238° |
| 2026-04-19 22:04 | 40.45784 | -94.17892 | 38269 ft | 420 kts | 238° |
| 2026-04-19 22:05 | 40.41968 | -94.23695 | 38243 ft | 420 kts | 238° |
| 2026-04-19 22:05 | 40.38151 | -94.29497 | 38234 ft | 420 kts | 238° |
| 2026-04-19 22:06 | 40.34323 | -94.35283 | 38244 ft | 420 kts | 238° |
| 2026-04-19 22:06 | 40.30490 | -94.41056 | 38249 ft | 420 kts | 238° |
| 2026-04-19 22:07 | 40.26661 | -94.46814 | 38247 ft | 420 kts | 238° |
| 2026-04-19 22:07 | 40.22849 | -94.52537 | 38251 ft | 420 kts | 238° |
| 2026-04-19 22:08 | 40.19011 | -94.58302 | 38212 ft | 420 kts | 238° |
| 2026-04-19 22:08 | 40.15171 | -94.64053 | 38197 ft | 420 kts | 238° |
| 2026-04-19 22:09 | 40.11324 | -94.69801 | 38220 ft | 420 kts | 237° |
| 2026-04-19 22:09 | 40.07472 | -94.75543 | 38232 ft | 420 kts | 237° |
| 2026-04-19 22:10 | 40.03614 | -94.81279 | 38241 ft | 421 kts | 237° |
| 2026-04-19 22:10 | 39.99756 | -94.87016 | 38237 ft | 421 kts | 237° |
| 2026-04-19 22:11 | 39.95879 | -94.92742 | 38236 ft | 422 kts | 236° |
| 2026-04-19 22:11 | 39.91736 | -94.98222 | 38168 ft | 426 kts | 232° |
| 2026-04-19 22:12 | 39.87396 | -95.03497 | 38213 ft | 427 kts | 231° |
| 2026-04-19 22:12 | 39.83064 | -95.08756 | 38226 ft | 425 kts | 232° |
| 2026-04-19 22:13 | 39.78794 | -95.14059 | 38232 ft | 424 kts | 233° |
| 2026-04-19 22:13 | 39.74556 | -95.19377 | 38231 ft | 423 kts | 233° |
| 2026-04-19 22:14 | 39.70307 | -95.24681 | 38229 ft | 423 kts | 232° |
| 2026-04-19 22:14 | 39.66083 | -95.29931 | 38199 ft | 423 kts | 232° |
| 2026-04-19 22:15 | 39.61824 | -95.35196 | 38186 ft | 423 kts | 232° |
| 2026-04-19 22:15 | 39.57563 | -95.40458 | 38209 ft | 423 kts | 232° |
| 2026-04-19 22:16 | 39.53310 | -95.45711 | 38207 ft | 422 kts | 232° |
| 2026-04-19 22:16 | 39.49052 | -95.50953 | 38207 ft | 422 kts | 232° |
| 2026-04-19 22:17 | 39.44794 | -95.56196 | 38208 ft | 423 kts | 232° |
| 2026-04-19 22:17 | 39.40529 | -95.61435 | 38178 ft | 423 kts | 232° |
| 2026-04-19 22:18 | 39.36261 | -95.66664 | 38190 ft | 423 kts | 232° |
| 2026-04-19 22:18 | 39.34128 | -95.69275 | 37941 ft | 423 kts | 232° |
| 2026-04-19 22:18 | 39.31992 | -95.71887 | 37601 ft | 422 kts | 232° |
| 2026-04-19 22:18 | 39.29863 | -95.74487 | 37288 ft | 422 kts | 232° |
| 2026-04-19 22:19 | 39.27728 | -95.77091 | 37002 ft | 422 kts | 232° |
| 2026-04-19 22:19 | 39.25592 | -95.79693 | 36716 ft | 423 kts | 233° |
| 2026-04-19 22:19 | 39.23449 | -95.82305 | 36424 ft | 424 kts | 233° |
| 2026-04-19 22:19 | 39.21307 | -95.84916 | 36115 ft | 425 kts | 233° |
| 2026-04-19 22:20 | 39.19184 | -95.87500 | 35755 ft | 426 kts | 232° |
| 2026-04-19 22:20 | 39.17028 | -95.90121 | 35438 ft | 427 kts | 232° |
| 2026-04-19 22:20 | 39.14867 | -95.92743 | 35124 ft | 426 kts | 232° |
| 2026-04-19 22:20 | 39.12680 | -95.95390 | 34810 ft | 425 kts | 233° |
| 2026-04-19 22:21 | 39.10558 | -95.97953 | 34498 ft | 423 kts | 233° |
| 2026-04-19 22:21 | 39.08420 | -96.00539 | 34165 ft | 421 kts | 233° |
| 2026-04-19 22:21 | 39.06292 | -96.03116 | 33783 ft | 419 kts | 233° |
| 2026-04-19 22:21 | 39.04179 | -96.05678 | 33406 ft | 417 kts | 233° |
| 2026-04-19 22:22 | 39.02072 | -96.08227 | 32921 ft | 414 kts | 233° |
| 2026-04-19 22:22 | 38.99984 | -96.10748 | 32385 ft | 410 kts | 233° |
| 2026-04-19 22:22 | 38.97909 | -96.13250 | 31877 ft | 407 kts | 233° |
| 2026-04-19 22:22 | 38.95854 | -96.15728 | 31343 ft | 404 kts | 233° |
| 2026-04-19 22:23 | 38.93813 | -96.18187 | 30852 ft | 401 kts | 233° |
| 2026-04-19 22:23 | 38.91784 | -96.20627 | 30367 ft | 399 kts | 232° |
| 2026-04-19 22:23 | 38.89764 | -96.23051 | 29816 ft | 396 kts | 232° |
| 2026-04-19 22:23 | 38.87760 | -96.25453 | 29257 ft | 393 kts | 232° |
| 2026-04-19 22:24 | 38.85771 | -96.27833 | 28701 ft | 389 kts | 232° |
| 2026-04-19 22:24 | 38.83799 | -96.30194 | 28165 ft | 386 kts | 232° |
| 2026-04-19 22:24 | 38.81845 | -96.32536 | 27634 ft | 383 kts | 232° |
| 2026-04-19 22:24 | 38.79905 | -96.34860 | 27114 ft | 380 kts | 232° |
| 2026-04-19 22:25 | 38.77976 | -96.37167 | 26597 ft | 378 kts | 231° |
| 2026-04-19 22:25 | 38.76062 | -96.39454 | 26101 ft | 375 kts | 231° |
| 2026-04-19 22:25 | 38.74161 | -96.41726 | 25606 ft | 372 kts | 231° |
| 2026-04-19 22:25 | 38.72295 | -96.43953 | 25109 ft | 361 kts | 231° |
| 2026-04-19 22:26 | 38.70469 | -96.46125 | 24614 ft | 356 kts | 231° |
| 2026-04-19 22:26 | 38.68666 | -96.48271 | 24130 ft | 354 kts | 231° |
| 2026-04-19 22:26 | 38.66868 | -96.50411 | 23651 ft | 352 kts | 230° |
| 2026-04-19 22:26 | 38.65105 | -96.52511 | 23100 ft | 350 kts | 230° |
| 2026-04-19 22:27 | 38.63327 | -96.54628 | 22555 ft | 348 kts | 230° |
| 2026-04-19 22:27 | 38.61566 | -96.56720 | 22020 ft | 342 kts | 230° |
| 2026-04-19 22:27 | 38.59832 | -96.58771 | 21492 ft | 337 kts | 230° |
| 2026-04-19 22:27 | 38.58119 | -96.60797 | 20979 ft | 334 kts | 230° |
| 2026-04-19 22:28 | 38.56422 | -96.62809 | 20481 ft | 331 kts | 230° |
| 2026-04-19 22:28 | 38.54742 | -96.64806 | 19915 ft | 328 kts | 230° |
| 2026-04-19 22:28 | 38.53069 | -96.66795 | 19364 ft | 330 kts | 230° |
| 2026-04-19 22:28 | 38.51386 | -96.68796 | 18807 ft | 332 kts | 230° |
| 2026-04-19 22:29 | 38.49689 | -96.70812 | 18227 ft | 334 kts | 230° |
| 2026-04-19 22:29 | 38.47986 | -96.72832 | 17609 ft | 335 kts | 229° |
| 2026-04-19 22:29 | 38.46286 | -96.74840 | 16993 ft | 328 kts | 229° |
| 2026-04-19 22:29 | 38.44634 | -96.76783 | 16394 ft | 318 kts | 229° |
| 2026-04-19 22:30 | 38.43028 | -96.78667 | 15809 ft | 310 kts | 229° |
| 2026-04-19 22:30 | 38.41460 | -96.80505 | 15238 ft | 302 kts | 229° |
| 2026-04-19 22:30 | 38.39931 | -96.82300 | 14679 ft | 296 kts | 230° |
| 2026-04-19 22:30 | 38.38433 | -96.84060 | 14125 ft | 290 kts | 229° |
| 2026-04-19 22:31 | 38.36964 | -96.85790 | 13509 ft | 285 kts | 229° |
| 2026-04-19 22:31 | 38.35517 | -96.87496 | 12906 ft | 281 kts | 229° |
| 2026-04-19 22:31 | 38.34097 | -96.89174 | 12367 ft | 275 kts | 228° |
| 2026-04-19 22:31 | 38.32715 | -96.90798 | 11949 ft | 266 kts | 228° |
| 2026-04-19 22:32 | 38.31373 | -96.92370 | 11558 ft | 258 kts | 228° |
| 2026-04-19 22:32 | 38.30074 | -96.93897 | 11162 ft | 251 kts | 227° |
| 2026-04-19 22:32 | 38.28811 | -96.95381 | 10776 ft | 244 kts | 227° |
| 2026-04-19 22:32 | 38.27582 | -96.96819 | 10388 ft | 237 kts | 227° |
| 2026-04-19 22:33 | 38.26383 | -96.98224 | 9993 ft | 232 kts | 227° |
| 2026-04-19 22:33 | 38.25613 | -96.99128 | 9833 ft | 225 kts | 227° |
| 2026-04-19 22:33 | 38.24467 | -97.00470 | 9587 ft | 223 kts | 226° |
| 2026-04-19 22:33 | 38.23328 | -97.01803 | 9351 ft | 222 kts | 227° |
| 2026-04-19 22:34 | 38.21833 | -97.03556 | 9050 ft | 220 kts | 226° |
| 2026-04-19 22:34 | 38.21076 | -97.04443 | 8894 ft | 218 kts | 226° |
| 2026-04-19 22:34 | 38.19606 | -97.06170 | 8592 ft | 216 kts | 226° |
| 2026-04-19 22:34 | 38.18502 | -97.07461 | 8364 ft | 215 kts | 226° |
| 2026-04-19 22:35 | 38.17758 | -97.08329 | 8213 ft | 214 kts | 226° |
| 2026-04-19 22:35 | 38.16665 | -97.09605 | 7994 ft | 213 kts | 225° |
| 2026-04-19 22:35 | 38.15575 | -97.10872 | 7764 ft | 212 kts | 225° |
| 2026-04-19 22:35 | 38.14507 | -97.12115 | 7549 ft | 210 kts | 225° |
| 2026-04-19 22:36 | 38.13435 | -97.13363 | 7330 ft | 209 kts | 225° |
| 2026-04-19 22:36 | 38.12367 | -97.14603 | 7114 ft | 207 kts | 224° |
| 2026-04-19 22:36 | 38.11308 | -97.15839 | 6897 ft | 207 kts | 225° |
| 2026-04-19 22:36 | 38.10255 | -97.17073 | 6685 ft | 205 kts | 225° |
| 2026-04-19 22:37 | 38.09208 | -97.18297 | 6454 ft | 204 kts | 224° |
| 2026-04-19 22:37 | 38.08167 | -97.19509 | 6223 ft | 202 kts | 224° |
| 2026-04-19 22:37 | 38.07131 | -97.20710 | 6106 ft | 203 kts | 224° |
| 2026-04-19 22:37 | 38.06087 | -97.21918 | 6007 ft | 202 kts | 223° |
| 2026-04-19 22:38 | 38.05051 | -97.23121 | 5911 ft | 201 kts | 224° |
| 2026-04-19 22:38 | 38.04021 | -97.24318 | 5808 ft | 201 kts | 224° |
| 2026-04-19 22:38 | 38.02990 | -97.25516 | 5707 ft | 201 kts | 224° |
| 2026-04-19 22:38 | 38.01947 | -97.26714 | 5606 ft | 203 kts | 220° |
| 2026-04-19 22:39 | 38.00700 | -97.27515 | 5510 ft | 203 kts | 202° |
| 2026-04-19 22:39 | 37.99371 | -97.28105 | 5402 ft | 203 kts | 202° |
| 2026-04-19 22:39 | 37.98043 | -97.28713 | 5272 ft | 203 kts | 202° |
| 2026-04-19 22:39 | 37.96730 | -97.29319 | 5061 ft | 201 kts | 202° |
| 2026-04-19 22:40 | 37.95419 | -97.29924 | 4782 ft | 200 kts | 203° |
| 2026-04-19 22:40 | 37.94111 | -97.30529 | 4467 ft | 200 kts | 202° |
| 2026-04-19 22:40 | 37.92840 | -97.31114 | 4169 ft | 188 kts | 203° |
| 2026-04-19 22:40 | 37.91665 | -97.31655 | 3904 ft | 172 kts | 202° |
| 2026-04-19 22:41 | 37.90583 | -97.32154 | 3649 ft | 158 kts | 203° |
| 2026-04-19 22:41 | 37.89595 | -97.32610 | 3408 ft | 144 kts | 202° |
| 2026-04-19 22:41 | 37.88696 | -97.33025 | 3177 ft | 132 kts | 203° |
| 2026-04-19 22:41 | 37.87853 | -97.33414 | 3027 ft | 126 kts | 202° |
| 2026-04-19 22:42 | 37.87040 | -97.33789 | 3002 ft | 123 kts | 201° |
| 2026-04-19 22:42 | 37.86244 | -97.34156 | 3001 ft | 122 kts | 203° |
| 2026-04-19 22:42 | 37.85439 | -97.34528 | 2998 ft | 124 kts | 203° |
| 2026-04-19 22:42 | 37.84633 | -97.34899 | 3004 ft | 126 kts | 201° |
| 2026-04-19 22:43 | 37.83817 | -97.35274 | 3002 ft | 124 kts | 202° |
| 2026-04-19 22:43 | 37.83011 | -97.35645 | 2989 ft | 124 kts | 202° |
| 2026-04-19 22:43 | 37.82203 | -97.36017 | 2982 ft | 123 kts | 201° |
| 2026-04-19 22:43 | 37.81401 | -97.36386 | 3000 ft | 122 kts | 203° |
| 2026-04-19 22:44 | 37.80598 | -97.36755 | 2993 ft | 123 kts | 202° |
| 2026-04-19 22:44 | 37.79785 | -97.37129 | 2993 ft | 126 kts | 201° |
| 2026-04-19 22:44 | 37.78962 | -97.37508 | 3005 ft | 126 kts | 202° |
| 2026-04-19 22:44 | 37.78143 | -97.37884 | 3003 ft | 124 kts | 203° |
| 2026-04-19 22:45 | 37.77330 | -97.38258 | 2992 ft | 125 kts | 201° |
| 2026-04-19 22:45 | 37.76508 | -97.38635 | 2994 ft | 126 kts | 201° |
| 2026-04-19 22:45 | 37.75687 | -97.39013 | 2994 ft | 125 kts | 202° |
| 2026-04-19 22:45 | 37.74872 | -97.39387 | 2984 ft | 125 kts | 203° |
| 2026-04-19 22:46 | 37.74052 | -97.39763 | 2928 ft | 125 kts | 205° |
| 2026-04-19 22:46 | 37.73236 | -97.40138 | 2811 ft | 124 kts | 202° |
| 2026-04-19 22:46 | 37.72425 | -97.40510 | 2681 ft | 123 kts | 205° |
| 2026-04-19 22:46 | 37.71615 | -97.40882 | 2503 ft | 125 kts | 205° |
| 2026-04-19 22:47 | 37.70791 | -97.41260 | 2343 ft | 126 kts | 202° |
| 2026-04-19 22:47 | 37.69969 | -97.41636 | 2174 ft | 126 kts | 200° |
| 2026-04-19 22:47 | 37.69151 | -97.42011 | 2008 ft | 124 kts | 200° |
| 2026-04-19 22:47 | 37.68329 | -97.42388 | 1839 ft | 125 kts | 201° |
| 2026-04-19 22:48 | 37.67530 | -97.42754 | 1687 ft | 124 kts | 199° |
| 2026-04-19 22:48 | 37.66722 | -97.43124 | 1507 ft | 122 kts | 200° |
| 2026-04-19 22:48 | 37.65929 | -97.43488 | 1349 ft | 121 kts | 201° |
| 2026-04-19 22:48 | 37.65220 | -97.43816 | 1329 ft | 88 kts | 200° |
| 2026-04-19 22:49 | 37.64810 | -97.44002 | 1327 ft | 41 kts | 199° |
| 2026-04-19 22:49 | 37.64597 | -97.44095 | 1331 ft | 21 kts | 198° |
| 2026-04-19 22:49 | 37.64523 | -97.44084 | 1332 ft | 5 kts | 134° |
| 2026-04-19 22:49 | 37.64511 | -97.44056 | 1332 ft | 0 kts | 114° |
| 2026-04-19 22:51 | 37.64507 | -97.44035 | 1332 ft | 7 kts | 98° |
| 2026-04-19 22:51 | 37.64584 | -97.43959 | 1329 ft | 17 kts | 17° |
| 2026-04-19 22:52 | 37.64693 | -97.43912 | 1329 ft | 16 kts | 19° |
| 2026-04-19 22:52 | 37.64793 | -97.43865 | 1328 ft | 15 kts | 20° |
| 2026-04-19 22:52 | 37.64895 | -97.43819 | 1327 ft | 16 kts | 19° |
| 2026-04-19 22:52 | 37.64992 | -97.43776 | 1328 ft | 14 kts | 20° |
| 2026-04-19 22:53 | 37.65077 | -97.43736 | 1330 ft | 12 kts | 19° |
| 2026-04-19 22:53 | 37.65155 | -97.43700 | 1328 ft | 11 kts | 22° |
| 2026-04-19 22:53 | 37.65222 | -97.43666 | 1330 ft | 9 kts | 21° |
| 2026-04-19 22:53 | 37.65271 | -97.43645 | 1332 ft | 6 kts | 19° |
| 2026-04-19 22:54 | 37.65305 | -97.43630 | 1332 ft | 7 kts | 18° |
| 2026-04-19 22:54 | 37.65359 | -97.43607 | 1336 ft | 8 kts | 23° |
| 2026-04-19 22:54 | 37.65359 | -97.43559 | 1332 ft | 7 kts | 144° |
| 2026-04-19 22:54 | 37.65314 | -97.43529 | 1331 ft | 9 kts | 152° |
| 2026-04-19 22:55 | 37.65259 | -97.43478 | 1332 ft | 10 kts | 125° |
| 2026-04-19 22:55 | 37.65238 | -97.43400 | 1333 ft | 8 kts | 108° |
| 2026-04-19 22:55 | 37.65231 | -97.43334 | 1333 ft | 7 kts | 81° |
| 2026-04-19 22:55 | 37.65254 | -97.43282 | 1336 ft | 7 kts | 48° |
| 2026-04-19 22:56 | 37.65284 | -97.43234 | 1337 ft | 7 kts | 59° |
| 2026-04-19 22:56 | 37.65304 | -97.43192 | 1334 ft | 5 kts | 60° |
| 2026-04-19 22:56 | 37.65307 | -97.43186 | 1334 ft | 0 kts | 60° |